sensor_id;sensor_type;location;lat;lon;timestamp;P1;durP1;ratioP1;P2;durP2;ratioP2
13879;SDS011;7010;48.200;16.332;2023-03-01T00:01:22;12.52;;;10.50;;
13879;SDS011;7010;48.200;16.332;2023-03-01T00:03:54;14.93;;;10.90;;
13879;SDS011;7010;48.200;16.332;2023-03-01T00:06:23;13.83;;;10.50;;
13879;SDS011;7010;48.200;16.332;2023-03-01T00:08:52;14.70;;;11.13;;
13879;SDS011;7010;48.200;16.332;2023-03-01T00:11:21;14.80;;;11.93;;
13879;SDS011;7010;48.200;16.332;2023-03-01T00:13:51;11.30;;;10.20;;
13879;SDS011;7010;48.200;16.332;2023-03-01T00:16:21;14.97;;;12.00;;
13879;SDS011;7010;48.200;16.332;2023-03-01T00:18:51;15.87;;;12.00;;
13879;SDS011;7010;48.200;16.332;2023-03-01T00:21:21;11.90;;;10.32;;
13879;SDS011;7010;48.200;16.332;2023-03-01T00:23:50;12.90;;;10.37;;
13879;SDS011;7010;48.200;16.332;2023-03-01T00:26:20;14.68;;;11.80;;
13879;SDS011;7010;48.200;16.332;2023-03-01T00:28:51;17.43;;;12.60;;
13879;SDS011;7010;48.200;16.332;2023-03-01T00:31:22;14.60;;;10.90;;
13879;SDS011;7010;48.200;16.332;2023-03-01T00:33:52;16.13;;;12.03;;
13879;SDS011;7010;48.200;16.332;2023-03-01T00:36:25;16.27;;;11.50;;
13879;SDS011;7010;48.200;16.332;2023-03-01T00:38:55;13.77;;;11.30;;
13879;SDS011;7010;48.200;16.332;2023-03-01T00:41:23;12.47;;;11.10;;
13879;SDS011;7010;48.200;16.332;2023-03-01T00:43:53;16.38;;;11.70;;
13879;SDS011;7010;48.200;16.332;2023-03-01T00:46:23;17.58;;;12.20;;
13879;SDS011;7010;48.200;16.332;2023-03-01T00:48:53;16.27;;;12.32;;
13879;SDS011;7010;48.200;16.332;2023-03-01T00:51:22;13.13;;;11.80;;
13879;SDS011;7010;48.200;16.332;2023-03-01T00:53:53;13.95;;;11.50;;
13879;SDS011;7010;48.200;16.332;2023-03-01T00:56:24;14.07;;;11.77;;
13879;SDS011;7010;48.200;16.332;2023-03-01T00:58:52;17.33;;;13.07;;
13879;SDS011;7010;48.200;16.332;2023-03-01T01:01:21;14.75;;;12.05;;
13879;SDS011;7010;48.200;16.332;2023-03-01T01:03:52;20.08;;;12.57;;
13879;SDS011;7010;48.200;16.332;2023-03-01T01:06:22;22.90;;;11.93;;
13879;SDS011;7010;48.200;16.332;2023-03-01T01:08:54;13.17;;;11.80;;
13879;SDS011;7010;48.200;16.332;2023-03-01T01:11:26;12.70;;;11.13;;
13879;SDS011;7010;48.200;16.332;2023-03-01T01:13:56;13.95;;;11.90;;
13879;SDS011;7010;48.200;16.332;2023-03-01T01:16:25;18.48;;;13.57;;
13879;SDS011;7010;48.200;16.332;2023-03-01T01:18:56;13.00;;;11.67;;
13879;SDS011;7010;48.200;16.332;2023-03-01T01:21:26;15.13;;;12.20;;
13879;SDS011;7010;48.200;16.332;2023-03-01T01:23:55;20.58;;;14.40;;
13879;SDS011;7010;48.200;16.332;2023-03-01T01:26:25;32.63;;;12.83;;
13879;SDS011;7010;48.200;16.332;2023-03-01T01:28:55;15.43;;;12.67;;
13879;SDS011;7010;48.200;16.332;2023-03-01T01:31:24;21.47;;;13.20;;
13879;SDS011;7010;48.200;16.332;2023-03-01T01:33:54;16.00;;;12.60;;
13879;SDS011;7010;48.200;16.332;2023-03-01T01:36:23;17.15;;;12.32;;
13879;SDS011;7010;48.200;16.332;2023-03-01T01:38:54;14.13;;;12.30;;
13879;SDS011;7010;48.200;16.332;2023-03-01T01:41:23;13.50;;;11.73;;
13879;SDS011;7010;48.200;16.332;2023-03-01T01:46:40;16.35;;;13.60;;
13879;SDS011;7010;48.200;16.332;2023-03-01T01:49:15;14.02;;;11.85;;
13879;SDS011;7010;48.200;16.332;2023-03-01T01:51:55;13.75;;;12.35;;
13879;SDS011;7010;48.200;16.332;2023-03-01T01:54:30;12.45;;;11.20;;
13879;SDS011;7010;48.200;16.332;2023-03-01T01:57:06;13.85;;;11.75;;
13879;SDS011;7010;48.200;16.332;2023-03-01T01:59:38;15.57;;;11.63;;
13879;SDS011;7010;48.200;16.332;2023-03-01T02:02:09;17.27;;;13.38;;
13879;SDS011;7010;48.200;16.332;2023-03-01T02:04:39;30.95;;;14.93;;
13879;SDS011;7010;48.200;16.332;2023-03-01T02:07:10;17.13;;;12.35;;
13879;SDS011;7010;48.200;16.332;2023-03-01T02:09:43;16.60;;;13.55;;
13879;SDS011;7010;48.200;16.332;2023-03-01T02:12:14;19.10;;;12.90;;
13879;SDS011;7010;48.200;16.332;2023-03-01T02:14:46;30.13;;;15.03;;
13879;SDS011;7010;48.200;16.332;2023-03-01T02:17:14;13.07;;;11.53;;
13879;SDS011;7010;48.200;16.332;2023-03-01T02:19:47;18.10;;;12.00;;
13879;SDS011;7010;48.200;16.332;2023-03-01T02:22:30;13.52;;;12.15;;
13879;SDS011;7010;48.200;16.332;2023-03-01T02:25:06;15.85;;;12.55;;
13879;SDS011;7010;48.200;16.332;2023-03-01T02:27:48;18.17;;;13.35;;
13879;SDS011;7010;48.200;16.332;2023-03-01T02:30:22;14.18;;;11.75;;
13879;SDS011;7010;48.200;16.332;2023-03-01T02:32:53;16.33;;;12.93;;
13879;SDS011;7010;48.200;16.332;2023-03-01T02:35:29;16.77;;;13.07;;
13879;SDS011;7010;48.200;16.332;2023-03-01T02:38:00;19.38;;;14.10;;
13879;SDS011;7010;48.200;16.332;2023-03-01T02:40:30;16.52;;;12.80;;
13879;SDS011;7010;48.200;16.332;2023-03-01T02:43:00;20.98;;;12.13;;
13879;SDS011;7010;48.200;16.332;2023-03-01T02:45:33;17.10;;;13.77;;
13879;SDS011;7010;48.200;16.332;2023-03-01T02:48:01;15.80;;;13.23;;
13879;SDS011;7010;48.200;16.332;2023-03-01T02:50:39;15.48;;;13.50;;
13879;SDS011;7010;48.200;16.332;2023-03-01T02:53:15;16.02;;;12.98;;
13879;SDS011;7010;48.200;16.332;2023-03-01T02:55:49;21.35;;;13.77;;
13879;SDS011;7010;48.200;16.332;2023-03-01T02:58:18;15.80;;;12.55;;
13879;SDS011;7010;48.200;16.332;2023-03-01T03:00:48;14.25;;;11.68;;
13879;SDS011;7010;48.200;16.332;2023-03-01T03:03:17;16.60;;;12.45;;
13879;SDS011;7010;48.200;16.332;2023-03-01T03:05:48;16.88;;;12.55;;
13879;SDS011;7010;48.200;16.332;2023-03-01T03:08:16;17.40;;;13.07;;
13879;SDS011;7010;48.200;16.332;2023-03-01T03:10:50;13.83;;;12.40;;
13879;SDS011;7010;48.200;16.332;2023-03-01T03:13:19;20.45;;;13.27;;
13879;SDS011;7010;48.200;16.332;2023-03-01T03:15:49;13.77;;;12.23;;
13879;SDS011;7010;48.200;16.332;2023-03-01T03:18:18;14.02;;;12.38;;
13879;SDS011;7010;48.200;16.332;2023-03-01T03:20:46;14.75;;;12.88;;
13879;SDS011;7010;48.200;16.332;2023-03-01T03:23:19;16.95;;;13.38;;
13879;SDS011;7010;48.200;16.332;2023-03-01T03:25:47;17.80;;;13.98;;
13879;SDS011;7010;48.200;16.332;2023-03-01T03:28:16;20.67;;;13.70;;
13879;SDS011;7010;48.200;16.332;2023-03-01T03:30:45;15.07;;;13.30;;
13879;SDS011;7010;48.200;16.332;2023-03-01T03:33:15;18.88;;;13.82;;
13879;SDS011;7010;48.200;16.332;2023-03-01T03:35:44;17.45;;;14.48;;
13879;SDS011;7010;48.200;16.332;2023-03-01T03:38:14;19.67;;;14.48;;
13879;SDS011;7010;48.200;16.332;2023-03-01T03:40:45;18.38;;;14.23;;
13879;SDS011;7010;48.200;16.332;2023-03-01T03:43:15;15.65;;;13.35;;
13879;SDS011;7010;48.200;16.332;2023-03-01T03:45:45;18.98;;;14.40;;
13879;SDS011;7010;48.200;16.332;2023-03-01T03:48:13;26.88;;;14.43;;
13879;SDS011;7010;48.200;16.332;2023-03-01T03:50:47;17.17;;;13.18;;
13879;SDS011;7010;48.200;16.332;2023-03-01T03:53:17;16.90;;;13.48;;
13879;SDS011;7010;48.200;16.332;2023-03-01T03:55:46;13.40;;;11.80;;
13879;SDS011;7010;48.200;16.332;2023-03-01T03:58:15;17.33;;;13.57;;
13879;SDS011;7010;48.200;16.332;2023-03-01T04:00:47;20.95;;;13.82;;
13879;SDS011;7010;48.200;16.332;2023-03-01T04:03:18;21.00;;;14.07;;
13879;SDS011;7010;48.200;16.332;2023-03-01T04:05:48;18.90;;;14.80;;
13879;SDS011;7010;48.200;16.332;2023-03-01T04:08:17;17.25;;;13.75;;
13879;SDS011;7010;48.200;16.332;2023-03-01T04:10:47;18.95;;;13.88;;
13879;SDS011;7010;48.200;16.332;2023-03-01T04:13:18;20.27;;;13.90;;
13879;SDS011;7010;48.200;16.332;2023-03-01T04:15:48;32.25;;;14.98;;
13879;SDS011;7010;48.200;16.332;2023-03-01T04:18:19;14.90;;;13.13;;
13879;SDS011;7010;48.200;16.332;2023-03-01T04:20:48;16.02;;;13.35;;
13879;SDS011;7010;48.200;16.332;2023-03-01T04:23:19;15.52;;;12.45;;
13879;SDS011;7010;48.200;16.332;2023-03-01T04:25:48;17.77;;;14.43;;
13879;SDS011;7010;48.200;16.332;2023-03-01T04:28:20;13.63;;;12.18;;
13879;SDS011;7010;48.200;16.332;2023-03-01T04:30:51;18.52;;;14.98;;
13879;SDS011;7010;48.200;16.332;2023-03-01T04:33:24;29.20;;;14.55;;
13879;SDS011;7010;48.200;16.332;2023-03-01T04:35:53;19.90;;;15.23;;
13879;SDS011;7010;48.200;16.332;2023-03-01T04:38:21;14.85;;;13.35;;
13879;SDS011;7010;48.200;16.332;2023-03-01T04:40:49;17.98;;;14.27;;
13879;SDS011;7010;48.200;16.332;2023-03-01T04:43:18;19.85;;;14.95;;
13879;SDS011;7010;48.200;16.332;2023-03-01T04:45:46;17.25;;;13.65;;
13879;SDS011;7010;48.200;16.332;2023-03-01T04:48:14;23.07;;;15.40;;
13879;SDS011;7010;48.200;16.332;2023-03-01T04:50:44;20.77;;;14.95;;
13879;SDS011;7010;48.200;16.332;2023-03-01T04:53:12;19.00;;;14.15;;
13879;SDS011;7010;48.200;16.332;2023-03-01T04:55:40;22.83;;;14.13;;
13879;SDS011;7010;48.200;16.332;2023-03-01T04:58:08;19.05;;;14.52;;
13879;SDS011;7010;48.200;16.332;2023-03-01T05:00:37;18.00;;;14.13;;
13879;SDS011;7010;48.200;16.332;2023-03-01T05:03:05;16.90;;;14.15;;
13879;SDS011;7010;48.200;16.332;2023-03-01T05:05:34;18.77;;;14.43;;
13879;SDS011;7010;48.200;16.332;2023-03-01T05:08:05;17.50;;;12.88;;
13879;SDS011;7010;48.200;16.332;2023-03-01T05:10:35;14.95;;;12.93;;
13879;SDS011;7010;48.200;16.332;2023-03-01T05:13:05;15.10;;;12.87;;
13879;SDS011;7010;48.200;16.332;2023-03-01T05:15:33;19.77;;;14.98;;
13879;SDS011;7010;48.200;16.332;2023-03-01T05:18:03;21.40;;;15.00;;
13879;SDS011;7010;48.200;16.332;2023-03-01T05:20:37;15.07;;;12.68;;
13879;SDS011;7010;48.200;16.332;2023-03-01T05:23:07;17.67;;;14.25;;
13879;SDS011;7010;48.200;16.332;2023-03-01T05:25:35;14.95;;;13.02;;
13879;SDS011;7010;48.200;16.332;2023-03-01T05:28:07;18.98;;;14.30;;
13879;SDS011;7010;48.200;16.332;2023-03-01T05:30:39;18.77;;;13.32;;
13879;SDS011;7010;48.200;16.332;2023-03-01T05:33:07;15.80;;;13.07;;
13879;SDS011;7010;48.200;16.332;2023-03-01T05:35:40;18.50;;;14.45;;
13879;SDS011;7010;48.200;16.332;2023-03-01T05:38:11;16.10;;;13.57;;
13879;SDS011;7010;48.200;16.332;2023-03-01T05:40:41;19.42;;;13.65;;
13879;SDS011;7010;48.200;16.332;2023-03-01T05:43:11;20.10;;;14.85;;
13879;SDS011;7010;48.200;16.332;2023-03-01T05:45:40;18.80;;;13.85;;
13879;SDS011;7010;48.200;16.332;2023-03-01T05:48:10;14.73;;;13.05;;
13879;SDS011;7010;48.200;16.332;2023-03-01T05:50:39;16.90;;;13.57;;
13879;SDS011;7010;48.200;16.332;2023-03-01T05:53:11;14.95;;;13.13;;
13879;SDS011;7010;48.200;16.332;2023-03-01T05:55:42;17.58;;;12.88;;
13879;SDS011;7010;48.200;16.332;2023-03-01T05:58:13;15.82;;;12.85;;
13879;SDS011;7010;48.200;16.332;2023-03-01T06:00:43;18.98;;;14.55;;
13879;SDS011;7010;48.200;16.332;2023-03-01T06:03:13;16.05;;;13.35;;
13879;SDS011;7010;48.200;16.332;2023-03-01T06:05:43;17.52;;;14.38;;
13879;SDS011;7010;48.200;16.332;2023-03-01T06:08:13;16.52;;;14.35;;
13879;SDS011;7010;48.200;16.332;2023-03-01T06:10:41;15.38;;;13.38;;
13879;SDS011;7010;48.200;16.332;2023-03-01T06:13:09;14.48;;;12.38;;
13879;SDS011;7010;48.200;16.332;2023-03-01T06:15:38;18.75;;;14.50;;
13879;SDS011;7010;48.200;16.332;2023-03-01T06:18:06;16.05;;;13.13;;
13879;SDS011;7010;48.200;16.332;2023-03-01T06:20:34;16.42;;;13.98;;
13879;SDS011;7010;48.200;16.332;2023-03-01T06:23:02;22.05;;;13.68;;
13879;SDS011;7010;48.200;16.332;2023-03-01T06:25:32;16.42;;;13.57;;
13879;SDS011;7010;48.200;16.332;2023-03-01T06:28:00;15.98;;;14.05;;
13879;SDS011;7010;48.200;16.332;2023-03-01T06:30:28;16.48;;;13.55;;
13879;SDS011;7010;48.200;16.332;2023-03-01T06:32:57;18.15;;;14.25;;
13879;SDS011;7010;48.200;16.332;2023-03-01T06:35:27;17.77;;;13.75;;
13879;SDS011;7010;48.200;16.332;2023-03-01T06:37:57;20.17;;;14.32;;
13879;SDS011;7010;48.200;16.332;2023-03-01T06:40:27;23.45;;;14.52;;
13879;SDS011;7010;48.200;16.332;2023-03-01T06:42:57;17.88;;;13.25;;
13879;SDS011;7010;48.200;16.332;2023-03-01T06:45:27;16.10;;;13.52;;
13879;SDS011;7010;48.200;16.332;2023-03-01T06:48:02;15.15;;;13.07;;
13879;SDS011;7010;48.200;16.332;2023-03-01T06:50:31;19.17;;;13.43;;
13879;SDS011;7010;48.200;16.332;2023-03-01T06:53:00;21.23;;;13.90;;
13879;SDS011;7010;48.200;16.332;2023-03-01T06:55:28;13.20;;;11.80;;
13879;SDS011;7010;48.200;16.332;2023-03-01T06:57:59;15.00;;;13.18;;
13879;SDS011;7010;48.200;16.332;2023-03-01T07:00:30;16.52;;;13.18;;
13879;SDS011;7010;48.200;16.332;2023-03-01T07:03:00;16.92;;;13.75;;
13879;SDS011;7010;48.200;16.332;2023-03-01T07:05:29;19.15;;;14.85;;
13879;SDS011;7010;48.200;16.332;2023-03-01T07:07:58;15.82;;;12.98;;
13879;SDS011;7010;48.200;16.332;2023-03-01T07:10:26;13.48;;;12.02;;
13879;SDS011;7010;48.200;16.332;2023-03-01T07:12:55;15.38;;;12.73;;
13879;SDS011;7010;48.200;16.332;2023-03-01T07:15:25;15.52;;;13.80;;
13879;SDS011;7010;48.200;16.332;2023-03-01T07:17:55;17.33;;;13.85;;
13879;SDS011;7010;48.200;16.332;2023-03-01T07:20:24;20.15;;;13.38;;
13879;SDS011;7010;48.200;16.332;2023-03-01T07:22:52;19.75;;;13.20;;
13879;SDS011;7010;48.200;16.332;2023-03-01T07:25:21;14.95;;;12.30;;
13879;SDS011;7010;48.200;16.332;2023-03-01T07:27:49;17.67;;;13.57;;
13879;SDS011;7010;48.200;16.332;2023-03-01T07:30:19;13.40;;;12.00;;
13879;SDS011;7010;48.200;16.332;2023-03-01T07:32:49;16.48;;;13.02;;
13879;SDS011;7010;48.200;16.332;2023-03-01T07:35:20;16.60;;;13.55;;
13879;SDS011;7010;48.200;16.332;2023-03-01T07:37:49;20.20;;;12.93;;
13879;SDS011;7010;48.200;16.332;2023-03-01T07:40:17;19.42;;;13.82;;
13879;SDS011;7010;48.200;16.332;2023-03-01T07:42:45;29.27;;;14.82;;
13879;SDS011;7010;48.200;16.332;2023-03-01T07:45:14;15.82;;;13.20;;
13879;SDS011;7010;48.200;16.332;2023-03-01T07:47:42;14.95;;;13.00;;
13879;SDS011;7010;48.200;16.332;2023-03-01T07:50:12;16.75;;;14.30;;
13879;SDS011;7010;48.200;16.332;2023-03-01T07:52:41;13.52;;;12.10;;
13879;SDS011;7010;48.200;16.332;2023-03-01T07:55:12;17.02;;;13.13;;
13879;SDS011;7010;48.200;16.332;2023-03-01T07:57:41;15.75;;;13.02;;
13879;SDS011;7010;48.200;16.332;2023-03-01T08:00:10;20.23;;;14.95;;
13879;SDS011;7010;48.200;16.332;2023-03-01T08:02:39;20.40;;;13.00;;
13879;SDS011;7010;48.200;16.332;2023-03-01T08:05:08;20.00;;;14.00;;
13879;SDS011;7010;48.200;16.332;2023-03-01T08:07:38;18.85;;;13.23;;
13879;SDS011;7010;48.200;16.332;2023-03-01T08:10:07;14.35;;;12.75;;
13879;SDS011;7010;48.200;16.332;2023-03-01T08:12:36;17.98;;;13.82;;
13879;SDS011;7010;48.200;16.332;2023-03-01T08:15:05;19.67;;;12.88;;
13879;SDS011;7010;48.200;16.332;2023-03-01T08:17:34;16.83;;;13.70;;
13879;SDS011;7010;48.200;16.332;2023-03-01T08:20:02;22.90;;;14.20;;
13879;SDS011;7010;48.200;16.332;2023-03-01T08:22:32;25.20;;;13.85;;
13879;SDS011;7010;48.200;16.332;2023-03-01T08:25:02;21.30;;;13.45;;
13879;SDS011;7010;48.200;16.332;2023-03-01T08:27:31;15.00;;;13.38;;
13879;SDS011;7010;48.200;16.332;2023-03-01T08:29:59;17.17;;;13.25;;
13879;SDS011;7010;48.200;16.332;2023-03-01T08:32:28;19.67;;;14.43;;
13879;SDS011;7010;48.200;16.332;2023-03-01T08:34:56;15.18;;;13.68;;
13879;SDS011;7010;48.200;16.332;2023-03-01T08:37:24;19.50;;;14.63;;
13879;SDS011;7010;48.200;16.332;2023-03-01T08:39:54;23.63;;;15.13;;
13879;SDS011;7010;48.200;16.332;2023-03-01T08:42:24;19.33;;;14.80;;
13879;SDS011;7010;48.200;16.332;2023-03-01T08:44:52;18.98;;;14.00;;
13879;SDS011;7010;48.200;16.332;2023-03-01T08:47:20;29.55;;;16.60;;
13879;SDS011;7010;48.200;16.332;2023-03-01T08:49:49;24.42;;;14.98;;
13879;SDS011;7010;48.200;16.332;2023-03-01T08:52:17;16.67;;;14.18;;
13879;SDS011;7010;48.200;16.332;2023-03-01T08:54:47;18.35;;;15.48;;
13879;SDS011;7010;48.200;16.332;2023-03-01T08:57:15;18.38;;;14.70;;
13879;SDS011;7010;48.200;16.332;2023-03-01T08:59:45;15.43;;;13.88;;
13879;SDS011;7010;48.200;16.332;2023-03-01T09:02:14;17.17;;;13.65;;
13879;SDS011;7010;48.200;16.332;2023-03-01T09:04:44;21.10;;;15.77;;
13879;SDS011;7010;48.200;16.332;2023-03-01T09:07:12;21.55;;;15.85;;
13879;SDS011;7010;48.200;16.332;2023-03-01T09:09:41;15.57;;;13.05;;
13879;SDS011;7010;48.200;16.332;2023-03-01T09:12:09;20.98;;;15.57;;
13879;SDS011;7010;48.200;16.332;2023-03-01T09:14:38;16.70;;;14.40;;
13879;SDS011;7010;48.200;16.332;2023-03-01T09:17:09;17.90;;;13.68;;
13879;SDS011;7010;48.200;16.332;2023-03-01T09:19:37;16.95;;;14.07;;
13879;SDS011;7010;48.200;16.332;2023-03-01T09:22:06;15.55;;;13.55;;
13879;SDS011;7010;48.200;16.332;2023-03-01T09:24:34;21.25;;;14.63;;
13879;SDS011;7010;48.200;16.332;2023-03-01T09:27:02;19.70;;;14.40;;
13879;SDS011;7010;48.200;16.332;2023-03-01T09:29:35;22.02;;;14.52;;
13879;SDS011;7010;48.200;16.332;2023-03-01T09:32:03;15.18;;;12.85;;
13879;SDS011;7010;48.200;16.332;2023-03-01T09:34:34;17.77;;;13.82;;
13879;SDS011;7010;48.200;16.332;2023-03-01T09:37:23;17.02;;;13.35;;
13879;SDS011;7010;48.200;16.332;2023-03-01T09:39:51;17.42;;;12.93;;
13879;SDS011;7010;48.200;16.332;2023-03-01T09:42:20;20.63;;;13.90;;
13879;SDS011;7010;48.200;16.332;2023-03-01T09:44:49;15.48;;;13.00;;
13879;SDS011;7010;48.200;16.332;2023-03-01T09:47:21;16.35;;;13.85;;
13879;SDS011;7010;48.200;16.332;2023-03-01T09:49:57;21.40;;;14.98;;
13879;SDS011;7010;48.200;16.332;2023-03-01T09:52:30;18.38;;;13.38;;
13879;SDS011;7010;48.200;16.332;2023-03-01T09:55:08;15.15;;;12.88;;
13879;SDS011;7010;48.200;16.332;2023-03-01T09:57:41;16.40;;;12.18;;
13879;SDS011;7010;48.200;16.332;2023-03-01T10:00:20;15.63;;;11.32;;
13879;SDS011;7010;48.200;16.332;2023-03-01T10:02:57;15.45;;;11.88;;
13879;SDS011;7010;48.200;16.332;2023-03-01T10:05:33;15.30;;;12.60;;
13879;SDS011;7010;48.200;16.332;2023-03-01T10:08:14;11.48;;;9.93;;
13879;SDS011;7010;48.200;16.332;2023-03-01T10:10:55;16.20;;;11.85;;
13879;SDS011;7010;48.200;16.332;2023-03-01T10:13:25;15.82;;;12.48;;
13879;SDS011;7010;48.200;16.332;2023-03-01T10:16:00;14.85;;;11.63;;
13879;SDS011;7010;48.200;16.332;2023-03-01T10:18:31;13.50;;;11.98;;
13879;SDS011;7010;48.200;16.332;2023-03-01T10:21:08;14.88;;;11.30;;
13879;SDS011;7010;48.200;16.332;2023-03-01T10:23:42;11.85;;;10.65;;
13879;SDS011;7010;48.200;16.332;2023-03-01T10:26:14;12.90;;;11.13;;
13879;SDS011;7010;48.200;16.332;2023-03-01T10:28:58;16.40;;;10.85;;
13879;SDS011;7010;48.200;16.332;2023-03-01T10:31:34;13.02;;;11.70;;
13879;SDS011;7010;48.200;16.332;2023-03-01T10:34:08;17.55;;;12.82;;
13879;SDS011;7010;48.200;16.332;2023-03-01T10:36:43;14.40;;;11.60;;
13879;SDS011;7010;48.200;16.332;2023-03-01T10:39:16;14.25;;;10.18;;
13879;SDS011;7010;48.200;16.332;2023-03-01T10:41:57;12.20;;;10.32;;
13879;SDS011;7010;48.200;16.332;2023-03-01T10:44:36;13.07;;;10.82;;
13879;SDS011;7010;48.200;16.332;2023-03-01T10:47:12;13.32;;;11.07;;
13879;SDS011;7010;48.200;16.332;2023-03-01T10:49:56;13.82;;;11.32;;
13879;SDS011;7010;48.200;16.332;2023-03-01T10:52:29;15.23;;;10.73;;
13879;SDS011;7010;48.200;16.332;2023-03-01T10:54:59;10.68;;;9.68;;
13879;SDS011;7010;48.200;16.332;2023-03-01T10:57:35;13.35;;;10.35;;
13879;SDS011;7010;48.200;16.332;2023-03-01T11:00:15;11.93;;;10.73;;
13879;SDS011;7010;48.200;16.332;2023-03-01T11:02:51;11.57;;;9.85;;
13879;SDS011;7010;48.200;16.332;2023-03-01T11:05:30;11.48;;;10.27;;
13879;SDS011;7010;48.200;16.332;2023-03-01T11:08:01;12.98;;;10.73;;
13879;SDS011;7010;48.200;16.332;2023-03-01T11:10:31;14.85;;;10.90;;
13879;SDS011;7010;48.200;16.332;2023-03-01T11:13:08;12.30;;;10.63;;
13879;SDS011;7010;48.200;16.332;2023-03-01T11:15:42;12.32;;;10.18;;
13879;SDS011;7010;48.200;16.332;2023-03-01T11:18:18;13.77;;;10.60;;
13879;SDS011;7010;48.200;16.332;2023-03-01T11:21:02;9.45;;;8.43;;
13879;SDS011;7010;48.200;16.332;2023-03-01T11:23:33;12.05;;;8.50;;
13879;SDS011;7010;48.200;16.332;2023-03-01T11:26:05;16.30;;;8.57;;
13879;SDS011;7010;48.200;16.332;2023-03-01T11:28:38;10.38;;;9.35;;
13879;SDS011;7010;48.200;16.332;2023-03-01T11:31:09;10.38;;;9.35;;
13879;SDS011;7010;48.200;16.332;2023-03-01T11:33:39;10.98;;;8.77;;
13879;SDS011;7010;48.200;16.332;2023-03-01T11:36:15;11.00;;;9.70;;
13879;SDS011;7010;48.200;16.332;2023-03-01T11:38:51;12.10;;;10.70;;
13879;SDS011;7010;48.200;16.332;2023-03-01T11:41:21;12.63;;;10.30;;
13879;SDS011;7010;48.200;16.332;2023-03-01T11:43:55;15.07;;;11.10;;
13879;SDS011;7010;48.200;16.332;2023-03-01T11:46:34;14.05;;;11.55;;
13879;SDS011;7010;48.200;16.332;2023-03-01T11:49:21;12.23;;;10.85;;
13879;SDS011;7010;48.200;16.332;2023-03-01T11:52:11;13.20;;;11.32;;
13879;SDS011;7010;48.200;16.332;2023-03-01T11:54:53;15.40;;;13.00;;
13879;SDS011;7010;48.200;16.332;2023-03-01T11:57:39;13.02;;;10.57;;
13879;SDS011;7010;48.200;16.332;2023-03-01T12:00:25;14.93;;;11.40;;
13879;SDS011;7010;48.200;16.332;2023-03-01T12:09:02;13.93;;;11.90;;
13879;SDS011;7010;48.200;16.332;2023-03-01T12:11:48;24.52;;;11.45;;
13879;SDS011;7010;48.200;16.332;2023-03-01T12:14:43;13.52;;;10.88;;
13879;SDS011;7010;48.200;16.332;2023-03-01T12:17:36;12.68;;;10.77;;
13879;SDS011;7010;48.200;16.332;2023-03-01T12:20:28;13.60;;;9.30;;
13879;SDS011;7010;48.200;16.332;2023-03-01T12:23:05;12.45;;;10.13;;
13879;SDS011;7010;48.200;16.332;2023-03-01T12:25:52;11.15;;;10.00;;
13879;SDS011;7010;48.200;16.332;2023-03-01T12:28:39;13.15;;;11.38;;
13879;SDS011;7010;48.200;16.332;2023-03-01T12:34:32;13.98;;;11.55;;
13879;SDS011;7010;48.200;16.332;2023-03-01T12:37:22;11.60;;;10.20;;
13879;SDS011;7010;48.200;16.332;2023-03-01T12:40:03;13.35;;;10.82;;
13879;SDS011;7010;48.200;16.332;2023-03-01T12:42:45;10.68;;;9.60;;
13879;SDS011;7010;48.200;16.332;2023-03-01T12:45:32;12.20;;;10.73;;
13879;SDS011;7010;48.200;16.332;2023-03-01T12:48:17;19.40;;;10.90;;
13879;SDS011;7010;48.200;16.332;2023-03-01T12:50:59;13.07;;;11.32;;
13879;SDS011;7010;48.200;16.332;2023-03-01T12:53:31;11.50;;;10.25;;
13879;SDS011;7010;48.200;16.332;2023-03-01T12:56:05;12.45;;;9.57;;
13879;SDS011;7010;48.200;16.332;2023-03-01T12:58:37;11.75;;;10.38;;
13879;SDS011;7010;48.200;16.332;2023-03-01T13:01:19;11.30;;;9.75;;
13879;SDS011;7010;48.200;16.332;2023-03-01T13:04:05;10.20;;;8.88;;
13879;SDS011;7010;48.200;16.332;2023-03-01T13:07:21;14.07;;;9.63;;
13879;SDS011;7010;48.200;16.332;2023-03-01T13:09:56;10.82;;;9.73;;
13879;SDS011;7010;48.200;16.332;2023-03-01T13:12:42;10.13;;;9.20;;
13879;SDS011;7010;48.200;16.332;2023-03-01T13:15:24;16.38;;;10.95;;
13879;SDS011;7010;48.200;16.332;2023-03-01T13:17:56;11.20;;;9.23;;
13879;SDS011;7010;48.200;16.332;2023-03-01T13:20:27;12.27;;;10.25;;
13879;SDS011;7010;48.200;16.332;2023-03-01T13:23:04;12.50;;;9.75;;
13879;SDS011;7010;48.200;16.332;2023-03-01T13:25:50;12.38;;;9.98;;
13879;SDS011;7010;48.200;16.332;2023-03-01T13:28:35;11.55;;;10.38;;
13879;SDS011;7010;48.200;16.332;2023-03-01T13:37:32;10.18;;;9.18;;
13879;SDS011;7010;48.200;16.332;2023-03-01T13:40:05;10.98;;;9.05;;
13879;SDS011;7010;48.200;16.332;2023-03-01T13:45:56;11.48;;;10.18;;
13879;SDS011;7010;48.200;16.332;2023-03-01T13:48:27;11.68;;;9.77;;
13879;SDS011;7010;48.200;16.332;2023-03-01T13:50:59;11.50;;;10.13;;
13879;SDS011;7010;48.200;16.332;2023-03-01T13:53:31;10.43;;;9.40;;
13879;SDS011;7010;48.200;16.332;2023-03-01T13:56:06;9.65;;;8.68;;
13879;SDS011;7010;48.200;16.332;2023-03-01T13:58:44;10.48;;;9.48;;
13879;SDS011;7010;48.200;16.332;2023-03-01T14:01:23;12.00;;;9.25;;
13879;SDS011;7010;48.200;16.332;2023-03-01T14:03:54;12.18;;;10.02;;
13879;SDS011;7010;48.200;16.332;2023-03-01T14:06:25;9.57;;;8.50;;
13879;SDS011;7010;48.200;16.332;2023-03-01T14:09:02;10.52;;;8.43;;
13879;SDS011;7010;48.200;16.332;2023-03-01T14:11:35;10.15;;;9.07;;
13879;SDS011;7010;48.200;16.332;2023-03-01T14:14:22;11.52;;;8.93;;
13879;SDS011;7010;48.200;16.332;2023-03-01T14:17:06;10.55;;;9.20;;
13879;SDS011;7010;48.200;16.332;2023-03-01T14:19:45;10.00;;;8.77;;
13879;SDS011;7010;48.200;16.332;2023-03-01T14:22:18;10.80;;;9.70;;
13879;SDS011;7010;48.200;16.332;2023-03-01T14:24:50;24.15;;;11.13;;
13879;SDS011;7010;48.200;16.332;2023-03-01T14:27:21;9.80;;;8.90;;
13879;SDS011;7010;48.200;16.332;2023-03-01T14:29:54;10.00;;;9.00;;
13879;SDS011;7010;48.200;16.332;2023-03-01T14:32:27;13.15;;;10.38;;
13879;SDS011;7010;48.200;16.332;2023-03-01T14:34:57;10.65;;;9.38;;
13879;SDS011;7010;48.200;16.332;2023-03-01T14:37:29;8.65;;;7.75;;
13879;SDS011;7010;48.200;16.332;2023-03-01T14:39:59;9.85;;;8.85;;
13879;SDS011;7010;48.200;16.332;2023-03-01T14:42:30;11.48;;;9.95;;
13879;SDS011;7010;48.200;16.332;2023-03-01T14:45:02;10.52;;;8.88;;
13879;SDS011;7010;48.200;16.332;2023-03-01T14:47:43;10.38;;;9.05;;
13879;SDS011;7010;48.200;16.332;2023-03-01T14:50:16;12.30;;;10.27;;
13879;SDS011;7010;48.200;16.332;2023-03-01T14:52:53;14.68;;;8.77;;
13879;SDS011;7010;48.200;16.332;2023-03-01T14:55:25;10.27;;;8.30;;
13879;SDS011;7010;48.200;16.332;2023-03-01T14:57:56;10.55;;;9.45;;
13879;SDS011;7010;48.200;16.332;2023-03-01T15:00:29;18.63;;;9.73;;
13879;SDS011;7010;48.200;16.332;2023-03-01T15:03:00;12.45;;;10.90;;
13879;SDS011;7010;48.200;16.332;2023-03-01T15:05:36;12.70;;;10.63;;
13879;SDS011;7010;48.200;16.332;2023-03-01T15:08:06;12.02;;;10.70;;
13879;SDS011;7010;48.200;16.332;2023-03-01T15:10:36;18.23;;;11.75;;
13879;SDS011;7010;48.200;16.332;2023-03-01T15:13:12;15.63;;;12.07;;
13879;SDS011;7010;48.200;16.332;2023-03-01T15:15:41;12.23;;;10.20;;